createdAt,value
2018-07-23T00:01:49.561Z,86.89
2018-07-23T00:04:17.738Z,86.27
2018-07-23T00:06:45.754Z,87.07
2018-07-23T00:09:13.655Z,87.25
2018-07-23T00:11:41.880Z,88.27
2018-07-23T00:14:09.834Z,88.39
2018-07-23T00:16:37.920Z,87.42
2018-07-23T00:19:06.131Z,87.92
2018-07-23T00:21:33.963Z,88.39
2018-07-23T00:24:01.845Z,89.00
2018-07-23T00:26:30.251Z,89.71
2018-07-23T00:28:58.278Z,90.55
2018-07-23T00:31:26.491Z,90.35
2018-07-23T00:33:55.412Z,90.43
2018-07-23T00:36:23.458Z,90.24
2018-07-23T00:38:51.557Z,90.96
2018-07-23T00:41:20.056Z,90.67
2018-07-23T00:43:48.060Z,91.77
2018-07-23T00:46:16.917Z,92.16
2018-07-23T00:48:45.346Z,91.21
2018-07-23T00:51:13.356Z,91.43
2018-07-23T00:53:41.374Z,91.97
2018-07-23T00:56:10.102Z,93.76
2018-07-23T00:58:38.266Z,92.81
2018-07-23T01:01:06.395Z,91.82
2018-07-23T01:03:34.578Z,92.14
2018-07-23T01:06:02.459Z,92.82
2018-07-23T01:08:30.495Z,92.76
2018-07-23T01:10:58.640Z,91.92
2018-07-23T01:13:26.507Z,92.38
2018-07-23T01:15:54.482Z,91.05
2018-07-23T01:18:22.953Z,92.79
2018-07-23T01:20:50.938Z,92.62
2018-07-23T01:23:18.946Z,91.45
2018-07-23T01:25:46.893Z,92.40
2018-07-23T01:28:15.010Z,92.56
2018-07-23T01:30:42.988Z,93.12
2018-07-23T01:33:10.959Z,93.76
2018-07-23T01:35:38.957Z,93.90
2018-07-23T01:38:06.999Z,93.43
2018-07-23T01:40:34.924Z,94.30
2018-07-23T01:43:02.907Z,94.29
2018-07-23T01:45:30.854Z,93.91
2018-07-23T01:47:59.020Z,93.31
2018-07-23T01:50:26.947Z,93.86
2018-07-23T01:52:55.000Z,93.87
2018-07-23T01:55:22.907Z,94.92
2018-07-23T01:57:50.981Z,95.25
2018-07-23T02:00:19.091Z,95.27
2018-07-23T02:02:47.350Z,96.42
2018-07-23T02:05:15.433Z,96.33
2018-07-23T02:07:43.485Z,97.01
2018-07-23T02:10:11.759Z,97.17
2018-07-23T02:12:39.790Z,97.40
2018-07-23T02:15:07.885Z,96.39
2018-07-23T02:17:36.080Z,94.83
2018-07-23T02:20:04.838Z,94.99
2018-07-23T02:22:32.890Z,95.65
2018-07-23T02:25:00.964Z,95.30
2018-07-23T02:27:29.050Z,95.67
2018-07-23T02:29:57.050Z,95.08
2018-07-23T02:32:25.092Z,94.34
2018-07-23T02:34:54.338Z,94.90
2018-07-23T02:37:22.346Z,94.42
2018-07-23T02:39:50.366Z,94.47
2018-07-23T02:42:18.203Z,95.20
2018-07-23T02:44:46.090Z,96.79
2018-07-23T02:47:14.475Z,96.68
2018-07-23T02:49:42.475Z,94.74
2018-07-23T02:52:10.561Z,94.26
2018-07-23T02:54:38.655Z,94.11
2018-07-23T02:57:06.650Z,93.69
2018-07-23T02:59:34.779Z,94.22
2018-07-23T03:02:03.186Z,94.55
2018-07-23T03:04:31.183Z,94.92
2018-07-23T03:06:59.120Z,94.77
2018-07-23T03:09:27.163Z,94.91
2018-07-23T03:11:54.987Z,94.42
2018-07-23T03:14:22.899Z,94.13
2018-07-23T03:16:51.037Z,93.75
2018-07-23T03:19:19.108Z,94.02
2018-07-23T03:21:47.162Z,93.71
2018-07-23T03:24:15.258Z,93.54
2018-07-23T03:26:43.344Z,93.26
2018-07-23T03:29:11.410Z,93.63
2018-07-23T03:31:39.884Z,92.38
2018-07-23T03:34:07.834Z,91.66
2018-07-23T03:36:35.670Z,91.22
2018-07-23T03:41:56.652Z,90.22
2018-07-23T03:44:24.465Z,88.91
2018-07-23T03:46:52.334Z,88.24
2018-07-23T03:49:20.547Z,87.65
2018-07-23T03:51:48.448Z,86.90
2018-07-23T03:54:16.474Z,85.76
2018-07-23T03:56:44.435Z,85.13
2018-07-23T03:59:12.230Z,83.54
2018-07-23T04:01:40.115Z,83.46
2018-07-23T04:04:08.769Z,82.72
2018-07-23T04:06:36.720Z,82.40
2018-07-23T04:09:07.199Z,81.48
2018-07-23T04:11:35.415Z,81.26
2018-07-23T04:14:03.383Z,81.07
2018-07-23T04:16:31.203Z,81.26
2018-07-23T04:18:59.139Z,81.69
2018-07-23T04:21:27.951Z,81.21
2018-07-23T04:23:55.812Z,81.10
2018-07-23T04:26:23.691Z,78.95
2018-07-23T04:28:51.503Z,78.51
2018-07-23T04:31:19.362Z,78.02
2018-07-23T04:33:48.688Z,76.77
2018-07-23T04:36:17.601Z,76.08
2018-07-23T04:38:53.951Z,75.66
2018-07-23T04:41:22.869Z,74.77
2018-07-23T04:43:50.856Z,74.16
2018-07-23T04:46:18.696Z,73.73
2018-07-23T04:48:50.492Z,72.79
2018-07-23T04:51:21.898Z,72.62
2018-07-23T04:53:49.869Z,73.49
2018-07-23T04:56:17.689Z,72.51
2018-07-23T04:58:45.747Z,72.04
2018-07-23T05:01:13.631Z,70.29
2018-07-23T05:03:41.412Z,70.08
2018-07-23T05:06:09.412Z,68.51
2018-07-23T05:08:37.207Z,68.37
2018-07-23T05:11:04.993Z,68.04
2018-07-23T05:13:32.962Z,67.04
2018-07-23T05:16:00.743Z,65.04
2018-07-23T05:18:28.528Z,67.03
2018-07-23T05:20:56.443Z,66.85
2018-07-23T05:23:24.331Z,65.49
2018-07-23T05:25:52.202Z,66.27
2018-07-23T05:28:20.190Z,63.89
2018-07-23T05:30:48.115Z,64.26
2018-07-23T05:33:16.078Z,62.22
2018-07-23T05:35:43.996Z,61.96
2018-07-23T05:38:11.878Z,61.15
2018-07-23T05:40:39.988Z,59.19
2018-07-23T05:43:08.302Z,59.81
2018-07-23T05:45:36.141Z,59.21
2018-07-23T05:48:04.058Z,59.25
2018-07-23T05:50:32.139Z,59.70
2018-07-23T05:52:59.950Z,58.80
2018-07-23T05:55:27.846Z,57.77
2018-07-23T05:57:56.301Z,56.43
2018-07-23T06:00:24.113Z,55.91
2018-07-23T06:02:51.959Z,55.40
2018-07-23T06:05:19.878Z,56.82
2018-07-23T06:07:47.691Z,55.35
2018-07-23T06:10:15.552Z,55.76
2018-07-23T06:12:43.498Z,54.26
2018-07-23T06:15:11.576Z,55.43
2018-07-23T06:17:39.517Z,56.69
2018-07-23T06:20:08.286Z,58.25
2018-07-23T06:22:36.183Z,59.58
2018-07-23T06:25:04.391Z,60.49
2018-07-23T06:27:32.302Z,60.15
2018-07-23T06:30:00.194Z,61.24
2018-07-23T06:32:28.003Z,59.82
2018-07-23T06:34:55.971Z,61.11
2018-07-23T06:37:23.899Z,61.35
2018-07-23T06:39:51.728Z,60.22
2018-07-23T06:42:19.569Z,59.52
2018-07-23T06:44:47.482Z,59.84
2018-07-23T06:47:15.357Z,57.79
2018-07-23T06:49:43.392Z,59.10
2018-07-23T06:52:11.169Z,58.96
2018-07-23T06:54:39.011Z,59.62
2018-07-23T06:57:07.003Z,59.79
2018-07-23T06:59:35.566Z,59.85
2018-07-23T07:02:03.722Z,58.98
2018-07-23T07:04:32.118Z,59.60
2018-07-23T07:07:00.070Z,58.72
2018-07-23T07:09:27.967Z,59.57
2018-07-23T07:11:55.887Z,58.26
2018-07-23T07:14:23.739Z,59.11
2018-07-23T07:16:51.551Z,58.53
2018-07-23T07:19:19.618Z,58.99
2018-07-23T07:21:47.470Z,59.60
2018-07-23T07:24:15.310Z,57.47
2018-07-23T07:26:43.270Z,59.45
2018-07-23T07:29:11.191Z,57.50
2018-07-23T07:31:38.983Z,57.80
2018-07-23T07:34:06.815Z,58.60
2018-07-23T07:36:34.755Z,57.88
2018-07-23T07:39:03.069Z,56.70
2018-07-23T07:41:31.302Z,56.39
2018-07-23T07:43:59.123Z,57.12
2018-07-23T07:46:27.058Z,53.27
2018-07-23T07:48:55.310Z,54.43
2018-07-23T07:51:23.126Z,53.39
2018-07-23T07:53:50.862Z,53.94
2018-07-23T07:56:19.095Z,53.58
2018-07-23T07:58:46.865Z,53.42
2018-07-23T08:01:14.678Z,54.06
2018-07-23T08:03:42.613Z,51.46
2018-07-23T08:06:10.459Z,52.76
2018-07-23T08:08:38.346Z,51.15
2018-07-23T08:11:06.694Z,51.94
2018-07-23T08:13:34.588Z,50.87
2018-07-23T08:16:02.496Z,50.67
2018-07-23T08:18:30.555Z,50.86
2018-07-23T08:20:58.420Z,50.39
2018-07-23T08:23:26.306Z,49.75
2018-07-23T08:25:54.368Z,49.91
2018-07-23T08:28:22.134Z,50.10
2018-07-23T08:30:50.117Z,50.49
2018-07-23T08:33:18.033Z,49.55
2018-07-23T08:35:45.917Z,48.74
2018-07-23T08:38:13.806Z,48.59
2018-07-23T08:40:42.091Z,47.34
2018-07-23T08:43:09.940Z,46.56
2018-07-23T08:45:38.060Z,45.85
2018-07-23T08:48:06.142Z,45.50
2018-07-23T08:50:34.243Z,47.06
2018-07-23T08:53:02.075Z,46.88
2018-07-23T08:55:30.025Z,46.06
2018-07-23T08:57:57.909Z,47.24
2018-07-23T09:00:25.802Z,46.88
2018-07-23T09:02:54.329Z,45.28
2018-07-23T09:05:22.356Z,45.17
2018-07-23T09:07:50.355Z,45.54
2018-07-23T09:10:18.316Z,45.27
2018-07-23T09:12:46.166Z,43.99
2018-07-23T09:15:14.066Z,44.49
2018-07-23T09:17:42.231Z,44.35
2018-07-23T09:20:10.100Z,43.88
2018-07-23T09:22:37.983Z,44.53
2018-07-23T09:25:06.011Z,44.19
2018-07-23T09:27:33.995Z,44.87
2018-07-23T09:30:01.905Z,46.00
2018-07-23T09:32:29.741Z,44.06
2018-07-23T09:34:57.631Z,42.96
2018-07-23T09:37:25.651Z,43.30
2018-07-23T09:39:54.621Z,43.30
2018-07-23T09:42:22.688Z,43.33
2018-07-23T09:44:50.639Z,42.47
2018-07-23T09:47:18.544Z,43.47
2018-07-23T09:49:46.378Z,42.26
2018-07-23T09:52:14.195Z,42.45
2018-07-23T09:54:42.536Z,42.43
2018-07-23T09:57:10.325Z,42.96
2018-07-23T09:59:38.235Z,42.38
2018-07-23T10:02:06.410Z,41.21
2018-07-23T10:04:34.352Z,41.93
2018-07-23T10:07:02.201Z,41.67
2018-07-23T10:09:30.140Z,41.49
2018-07-23T10:11:58.111Z,42.71
2018-07-23T10:14:25.990Z,35.22
2018-07-23T10:16:54.568Z,33.25
2018-07-23T10:19:22.436Z,32.29
2018-07-23T10:21:50.376Z,31.43
2018-07-23T10:24:18.727Z,31.51
2018-07-23T10:26:46.614Z,33.69
2018-07-23T10:29:14.389Z,32.77
2018-07-23T10:31:42.264Z,30.96
2018-07-23T10:34:10.058Z,32.09
2018-07-23T10:36:37.904Z,32.41
2018-07-23T10:39:08.198Z,32.92
2018-07-23T12:07:12.686Z,47.96
2018-07-23T12:09:40.390Z,48.23
2018-07-23T12:12:08.093Z,46.68
2018-07-23T12:14:36.434Z,45.48
2018-07-23T12:17:04.339Z,46.32
2018-07-23T12:19:32.035Z,44.68
2018-07-23T12:21:59.813Z,44.00
2018-07-23T12:24:27.535Z,43.96
2018-07-23T12:26:55.275Z,43.54
2018-07-23T12:29:23.397Z,43.11
2018-07-23T12:31:51.163Z,42.42
2018-07-23T12:34:18.978Z,41.91
2018-07-23T12:36:46.749Z,41.80
2018-07-23T12:39:14.449Z,40.33
2018-07-23T12:41:42.367Z,41.45
2018-07-23T12:44:10.725Z,40.81
2018-07-23T12:46:38.600Z,41.75
2018-07-23T12:49:06.574Z,39.81
2018-07-23T12:51:34.326Z,39.35
2018-07-23T12:54:02.293Z,38.31
2018-07-23T12:56:30.034Z,37.57
2018-07-23T12:58:57.819Z,36.51
2018-07-23T13:01:25.493Z,34.70
2018-07-23T13:03:53.255Z,36.60
2018-07-23T13:06:21.529Z,39.16
2018-07-23T13:08:49.358Z,42.85
2018-07-23T13:11:17.066Z,45.14
2018-07-23T13:13:45.174Z,48.09
2018-07-23T13:16:12.973Z,44.94
2018-07-23T13:18:40.710Z,45.80
2018-07-23T13:21:09.479Z,45.13
2018-07-23T13:23:37.331Z,44.35
2018-07-23T13:26:05.330Z,44.86
2018-07-23T13:28:33.457Z,45.34
2018-07-23T13:31:01.177Z,44.56
2018-07-23T13:33:28.834Z,42.90
2018-07-23T13:35:57.109Z,45.51
2018-07-23T13:38:24.960Z,46.51
2018-07-23T13:40:52.553Z,46.33
2018-07-23T13:43:20.766Z,46.63
2018-07-23T13:45:48.536Z,48.07
2018-07-23T13:48:16.278Z,49.14
2018-07-23T13:50:44.571Z,51.52
2018-07-23T13:53:12.338Z,52.22
2018-07-23T13:55:40.107Z,57.64
2018-07-23T13:58:07.880Z,66.41
2018-07-23T14:00:35.582Z,70.34
2018-07-23T14:03:03.334Z,77.16
2018-07-23T14:05:33.331Z,80.22
2018-07-23T14:08:01.074Z,82.36
2018-07-23T14:10:28.750Z,82.38
2018-07-23T14:12:56.541Z,78.75
2018-07-23T14:15:24.273Z,72.03
2018-07-23T14:17:52.043Z,71.97
2018-07-23T14:20:19.811Z,71.29
2018-07-23T14:22:47.503Z,72.48
2018-07-23T14:25:15.189Z,78.25
2018-07-23T14:27:42.954Z,80.87
2018-07-23T14:30:10.714Z,81.95
2018-07-23T14:32:38.484Z,83.70
2018-07-23T14:35:06.383Z,83.90
2018-07-23T14:37:34.246Z,84.29
2018-07-23T14:40:01.962Z,85.40
2018-07-23T14:42:30.139Z,86.82
2018-07-23T14:44:57.970Z,88.23
2018-07-23T14:47:25.807Z,88.96
2018-07-23T14:49:53.587Z,88.68
2018-07-23T14:52:21.350Z,87.02
2018-07-23T14:54:49.133Z,81.73
2018-07-23T14:57:16.940Z,82.32
2018-07-23T14:59:44.662Z,81.17
2018-07-23T15:02:12.407Z,80.02
2018-07-23T15:04:40.686Z,80.26
2018-07-23T15:07:08.685Z,80.60
2018-07-23T15:09:36.961Z,79.73
2018-07-23T15:12:04.868Z,80.10
2018-07-23T15:14:32.598Z,79.64
2018-07-23T15:17:00.499Z,79.63
2018-07-23T15:19:28.343Z,80.26
2018-07-23T15:21:56.121Z,77.28
2018-07-23T15:24:24.130Z,77.93
2018-07-23T15:26:52.285Z,76.89
2018-07-23T15:29:20.288Z,76.20
2018-07-23T15:31:48.312Z,74.13
2018-07-23T15:34:16.701Z,73.97
2018-07-23T15:36:44.454Z,73.67
2018-07-23T15:39:12.132Z,72.32
2018-07-23T15:41:39.949Z,71.10
2018-07-23T15:44:07.874Z,71.37
2018-07-23T15:46:35.657Z,70.23
2018-07-23T15:49:03.631Z,68.87
2018-07-23T15:51:31.341Z,68.25
2018-07-23T15:53:59.200Z,69.54
2018-07-23T15:56:27.052Z,70.44
2018-07-23T15:58:54.752Z,71.08
2018-07-23T16:01:22.486Z,71.00
2018-07-23T16:03:50.397Z,71.72
2018-07-23T16:06:18.160Z,72.80
2018-07-23T16:08:45.885Z,71.61
2018-07-23T16:11:14.118Z,72.64
2018-07-23T16:13:41.883Z,72.75
2018-07-23T16:16:09.668Z,72.99
2018-07-23T16:18:37.838Z,72.91
2018-07-23T16:21:05.615Z,71.12
2018-07-23T16:23:33.237Z,71.33
2018-07-23T16:26:01.063Z,73.30
2018-07-23T16:28:28.781Z,73.03
2018-07-23T16:30:56.531Z,74.08
2018-07-23T16:33:24.183Z,71.59
2018-07-23T16:35:51.866Z,73.08
2018-07-23T16:38:19.634Z,72.48
2018-07-23T16:40:47.792Z,71.50
2018-07-23T16:43:15.568Z,71.36
2018-07-23T16:45:43.324Z,72.17
2018-07-23T16:48:11.292Z,73.54
2018-07-23T16:50:39.112Z,73.62
2018-07-23T16:53:07.514Z,74.06
2018-07-23T16:55:35.391Z,73.33
2018-07-23T16:58:03.169Z,74.19
2018-07-23T17:00:30.966Z,73.81
2018-07-23T17:02:59.205Z,76.11
2018-07-23T17:05:27.012Z,76.31
2018-07-23T17:07:54.940Z,76.11
2018-07-23T17:10:22.911Z,77.50
2018-07-23T17:12:50.686Z,75.87
2018-07-23T17:15:18.493Z,76.25
2018-07-23T17:17:46.347Z,75.22
2018-07-23T17:20:14.169Z,75.20
2018-07-23T17:22:41.998Z,75.98
2018-07-23T17:25:09.909Z,76.59
2018-07-23T17:27:37.726Z,76.04
2018-07-23T17:30:05.656Z,75.79
2018-07-23T17:32:33.729Z,76.02
2018-07-23T17:35:01.605Z,75.88
2018-07-23T17:37:29.524Z,75.98
2018-07-23T17:39:57.639Z,75.79
2018-07-23T17:42:25.542Z,75.86
2018-07-23T17:44:53.584Z,76.38
2018-07-23T17:47:21.533Z,76.88
2018-07-23T17:49:49.248Z,77.30
2018-07-23T17:52:17.165Z,77.21
2018-07-23T17:54:45.162Z,77.18
2018-07-23T17:57:13.010Z,76.58
2018-07-23T17:59:40.913Z,76.72
2018-07-23T18:02:09.015Z,77.49
2018-07-23T18:04:36.915Z,77.42
2018-07-23T18:07:04.816Z,77.66
2018-07-23T18:09:32.767Z,77.58
2018-07-23T18:12:00.690Z,78.11
2018-07-23T18:14:28.631Z,78.16
2018-07-23T18:16:56.530Z,78.94
2018-07-23T18:19:24.282Z,80.47
2018-07-23T18:21:52.146Z,80.73
2018-07-23T18:24:20.159Z,80.98
2018-07-23T18:26:47.935Z,82.27
2018-07-23T18:29:15.803Z,81.62
2018-07-23T18:31:43.978Z,81.44
2018-07-23T18:34:11.859Z,81.80
2018-07-23T18:36:39.658Z,82.01
2018-07-23T18:39:09.737Z,82.57
2018-07-23T18:41:37.680Z,82.91
2018-07-23T18:44:05.506Z,83.69
2018-07-23T18:46:33.531Z,85.28
2018-07-23T18:49:25.725Z,85.44
2018-07-23T18:51:54.708Z,84.77
2018-07-23T18:54:23.857Z,84.70
2018-07-23T18:56:57.237Z,85.31
2018-07-23T18:59:25.044Z,86.34
2018-07-23T19:01:53.869Z,85.40
2018-07-23T19:04:21.715Z,84.39
2018-07-23T19:06:49.920Z,87.25
2018-07-23T19:09:18.755Z,91.05
2018-07-23T19:11:47.765Z,95.50
2018-07-23T19:14:16.054Z,100.00
2018-07-23T19:16:44.274Z,100.00
2018-07-23T19:19:12.358Z,100.00
2018-07-23T19:21:40.301Z,100.00
2018-07-23T19:24:08.115Z,100.00
2018-07-23T19:26:36.183Z,100.00
2018-07-23T19:29:04.235Z,100.00
2018-07-23T19:31:32.075Z,100.00
2018-07-23T19:34:01.513Z,100.00
2018-07-23T19:36:29.718Z,100.00
2018-07-23T19:38:57.867Z,100.00
2018-07-23T19:41:26.524Z,100.00
2018-07-23T19:43:54.548Z,100.00
2018-07-23T19:46:22.632Z,100.00
2018-07-23T19:48:50.704Z,100.00
2018-07-23T19:51:18.835Z,100.00
2018-07-23T19:53:47.070Z,100.00
2018-07-23T19:56:15.879Z,100.00
2018-07-23T19:58:43.783Z,100.00
2018-07-23T20:01:11.718Z,100.00
2018-07-23T20:03:39.550Z,100.00
2018-07-23T20:06:07.347Z,100.00
2018-07-23T20:08:35.259Z,100.00
2018-07-23T20:11:03.198Z,100.00
2018-07-23T20:13:31.115Z,100.00
2018-07-23T20:15:58.844Z,100.00
2018-07-23T20:18:26.938Z,100.00
2018-07-23T20:20:54.895Z,100.00
2018-07-23T20:23:23.136Z,100.00
2018-07-23T20:25:51.043Z,100.00
2018-07-23T20:28:18.944Z,100.00
2018-07-23T20:30:46.822Z,100.00
2018-07-23T20:33:15.185Z,100.00
2018-07-23T20:35:43.086Z,100.00
2018-07-23T20:38:10.982Z,100.00
2018-07-23T20:40:38.844Z,100.00
2018-07-23T20:43:06.716Z,100.00
2018-07-23T20:45:34.469Z,100.00
2018-07-23T20:48:02.775Z,100.00
2018-07-23T20:50:31.613Z,100.00
2018-07-23T20:52:59.521Z,100.00
2018-07-23T20:55:27.609Z,100.00
2018-07-23T20:57:55.447Z,100.00
2018-07-23T21:00:23.456Z,100.00
2018-07-23T21:02:51.678Z,100.00
2018-07-23T21:05:19.542Z,100.00
2018-07-23T21:07:47.410Z,100.00
2018-07-23T21:10:15.411Z,100.00
2018-07-23T21:12:43.283Z,100.00
2018-07-23T21:15:11.091Z,100.00
2018-07-23T21:17:41.204Z,100.00
2018-07-23T21:20:09.538Z,100.00
2018-07-23T21:22:37.741Z,100.00
2018-07-23T21:25:06.419Z,100.00
2018-07-23T21:27:34.438Z,100.00
2018-07-23T21:30:02.407Z,100.00
2018-07-23T21:32:30.728Z,100.00
2018-07-23T21:34:58.468Z,100.00
2018-07-23T21:37:26.332Z,100.00
2018-07-23T21:39:54.268Z,100.00
2018-07-23T21:42:22.064Z,100.00
2018-07-23T21:44:49.977Z,100.00
2018-07-23T21:47:18.100Z,100.00
2018-07-23T21:49:45.963Z,100.00
2018-07-23T21:52:13.848Z,100.00
2018-07-23T21:54:41.772Z,100.00
2018-07-23T21:57:09.712Z,100.00
2018-07-23T21:59:37.559Z,100.00
2018-07-23T22:02:06.144Z,100.00
2018-07-23T22:04:33.927Z,100.00
2018-07-23T22:07:01.795Z,100.00
2018-07-23T22:09:29.833Z,100.00
2018-07-23T22:11:57.599Z,100.00
2018-07-23T22:14:25.378Z,100.00
2018-07-23T22:16:53.216Z,100.00
2018-07-23T22:19:21.041Z,100.00
2018-07-23T22:21:48.912Z,100.00
2018-07-23T22:24:16.853Z,100.00
2018-07-23T22:26:44.699Z,100.00
2018-07-23T22:29:12.534Z,100.00
2018-07-23T22:31:40.428Z,100.00
2018-07-23T22:34:08.372Z,100.00
2018-07-23T22:36:36.188Z,100.00
2018-07-23T22:39:07.485Z,100.00
2018-07-23T22:41:35.296Z,100.00
2018-07-23T22:44:04.125Z,100.00
2018-07-23T22:46:32.004Z,100.00
2018-07-23T22:49:00.866Z,100.00
2018-07-23T22:51:28.786Z,100.00
2018-07-23T22:53:56.722Z,100.00
2018-07-23T22:56:24.689Z,100.00
2018-07-23T22:58:52.404Z,100.00
2018-07-23T23:01:20.932Z,100.00
2018-07-23T23:03:48.830Z,100.00
2018-07-23T23:06:16.720Z,100.00
2018-07-23T23:08:44.797Z,100.00
2018-07-23T23:11:12.530Z,100.00
2018-07-23T23:13:40.349Z,100.00
2018-07-23T23:16:08.663Z,100.00
2018-07-23T23:18:36.581Z,100.00
2018-07-23T23:21:04.503Z,100.00
2018-07-23T23:23:32.306Z,100.00
2018-07-23T23:26:00.151Z,100.00
2018-07-23T23:28:28.016Z,100.00
2018-07-23T23:30:55.815Z,100.00
2018-07-23T23:33:23.636Z,100.00
2018-07-23T23:35:51.545Z,99.90
2018-07-23T23:38:19.616Z,99.04
2018-07-23T23:40:47.419Z,97.63
2018-07-23T23:43:15.168Z,97.35
2018-07-23T23:45:43.003Z,97.05
2018-07-23T23:48:10.803Z,96.34
2018-07-23T23:50:38.622Z,97.01
2018-07-23T23:53:06.429Z,96.55
2018-07-23T23:55:34.290Z,95.98
2018-07-23T23:58:02.105Z,95.98
